Time;durP1;ratioP1;P1;durP2;ratioP2;P2;SDS_P1;SDS_P2;PMS_P1;PMS_P2;Temp;Humidity;BMP_temperature;BMP_pressure;BME280_temperature;BME280_humidity;BME280_pressure;Samples;Min_cycle;Max_cycle;Signal;HPM_P1;HPM_P2
2023/12/02 00:01:20;;;;;;;50.33;24.10;;;-3274.80;94.20;;;;;;5059057;28;20045;-79
2023/12/02 00:03:46;;;;;;;51.10;24.95;;;-3274.80;94.30;;;;;;5054088;28;20029;-81
2023/12/02 00:06:12;;;;;;;45.40;22.60;;;-3274.80;94.40;;;;;;5066131;28;20041;-78
2023/12/02 00:08:37;;;;;;;49.22;25.73;;;-3274.70;94.50;;;;;;5066756;28;20055;-79
2023/12/02 00:11:03;;;;;;;48.75;23.92;;;-3274.70;94.50;;;;;;5058814;28;20060;-80
2023/12/02 00:13:29;;;;;;;47.95;25.42;;;-3274.60;94.60;;;;;;5055817;28;20024;-78
2023/12/02 00:15:55;;;;;;;46.35;24.23;;;-3274.70;94.70;;;;;;5057922;28;20044;-79
2023/12/02 00:18:21;;;;;;;49.38;25.00;;;-3274.70;94.80;;;;;;5058643;28;20281;-77
2023/12/02 00:20:46;;;;;;;47.72;25.35;;;-3274.60;94.80;;;;;;5051152;28;20097;-78
2023/12/02 00:23:12;;;;;;;45.45;23.33;;;-3274.60;94.80;;;;;;5049402;28;20123;-77
2023/12/02 00:25:38;;;;;;;47.05;24.33;;;-3274.60;94.90;;;;;;5042336;28;20068;-77
2023/12/02 00:28:04;;;;;;;46.33;24.45;;;-3274.60;94.90;;;;;;5039545;28;20025;-77
2023/12/02 00:30:30;;;;;;;50.65;25.08;;;-3274.60;94.90;;;;;;5039918;28;20103;-78
2023/12/02 00:32:55;;;;;;;47.05;24.25;;;-3274.60;94.90;;;;;;5041966;28;20117;-77
2023/12/02 00:35:21;;;;;;;53.65;23.65;;;-3274.50;94.90;;;;;;5041628;28;20041;-77
2023/12/02 00:37:46;;;;;;;49.63;25.58;;;-3274.50;94.90;;;;;;5040000;28;20067;-77
2023/12/02 00:40:12;;;;;;;57.13;26.27;;;-3274.50;95.00;;;;;;5039751;28;20049;-76
2023/12/02 00:42:38;;;;;;;52.53;26.55;;;-3274.50;94.90;;;;;;5037787;28;20476;-79
2023/12/02 00:45:04;;;;;;;47.70;25.02;;;-3274.50;94.90;;;;;;5039121;28;20476;-77
2023/12/02 00:47:30;;;;;;;47.70;25.70;;;-3274.50;94.80;;;;;;5039013;28;20024;-77
2023/12/02 00:49:55;;;;;;;49.70;25.17;;;-3274.50;94.90;;;;;;5039339;28;20044;-77
2023/12/02 00:52:21;;;;;;;50.28;24.38;;;-3274.50;94.90;;;;;;5034623;28;20013;-77
2023/12/02 00:54:47;;;;;;;49.08;25.90;;;-3274.50;94.80;;;;;;5038781;28;20036;-77
2023/12/02 00:57:12;;;;;;;49.15;25.27;;;-3274.50;94.80;;;;;;5039969;28;20071;-77
2023/12/02 00:59:38;;;;;;;44.10;23.35;;;-3274.50;94.90;;;;;;5038555;28;20418;-77
2023/12/02 01:02:03;;;;;;;48.90;23.85;;;-3274.50;94.80;;;;;;5039253;28;20028;-77
2023/12/02 01:04:29;;;;;;;50.97;24.33;;;-3274.40;94.70;;;;;;5037846;28;20036;-77
2023/12/02 01:06:55;;;;;;;46.33;24.05;;;-3274.40;94.60;;;;;;5035453;28;20252;-77
2023/12/02 01:09:21;;;;;;;50.03;25.27;;;-3274.40;94.60;;;;;;5036427;28;20806;-77
2023/12/02 01:11:47;;;;;;;49.05;26.85;;;-3274.40;94.60;;;;;;5033387;28;20377;-77
2023/12/02 01:14:12;;;;;;;51.35;25.70;;;-3274.40;94.60;;;;;;5044575;28;20033;-80
2023/12/02 01:16:38;;;;;;;59.28;28.27;;;-3274.40;94.60;;;;;;5044483;28;20036;-77
2023/12/02 01:19:03;;;;;;;65.65;29.80;;;-3274.50;94.60;;;;;;5033898;28;20076;-79
2023/12/02 01:21:29;;;;;;;65.43;29.85;;;-3274.50;94.60;;;;;;5040445;28;20140;-77
2023/12/02 01:23:55;;;;;;;67.35;30.50;;;-3274.50;94.50;;;;;;5039719;28;20037;-78
2023/12/02 01:26:21;;;;;;;59.78;28.42;;;-3274.50;94.40;;;;;;5032845;28;20079;-77
2023/12/02 01:28:46;;;;;;;59.38;28.13;;;-3274.50;94.40;;;;;;5037819;28;20483;-78
2023/12/02 01:31:12;;;;;;;60.53;27.10;;;-3274.50;94.40;;;;;;5039343;28;20091;-79
2023/12/02 01:33:38;;;;;;;59.80;28.83;;;-3274.40;94.40;;;;;;5042758;28;20025;-78
2023/12/02 01:36:04;;;;;;;54.35;27.55;;;-3274.50;94.40;;;;;;5035680;28;20041;-79
2023/12/02 01:38:30;;;;;;;56.30;27.48;;;-3274.50;94.50;;;;;;5049986;28;20099;-78
2023/12/02 01:40:55;;;;;;;48.92;24.52;;;-3274.50;94.40;;;;;;5040741;28;20490;-79
2023/12/02 01:43:25;;;;;;;48.80;26.27;;;-3274.50;94.50;;;;;;5039610;28;20052;-79
2023/12/02 01:45:53;;;;;;;47.33;25.23;;;-3274.40;94.40;;;;;;5045856;28;20037;-79
2023/12/02 01:48:25;;;;;;;57.63;26.77;;;-3274.40;94.50;;;;;;5034389;28;20083;-78
2023/12/02 01:50:51;;;;;;;49.17;23.85;;;-3274.40;94.50;;;;;;5038498;28;20166;-77
2023/12/02 01:53:17;;;;;;;46.90;24.65;;;-3274.40;94.50;;;;;;5038302;28;20075;-78
2023/12/02 01:55:44;;;;;;;49.50;24.98;;;-3274.30;94.40;;;;;;5037276;28;20119;-78
2023/12/02 01:58:09;;;;;;;49.72;24.08;;;-3274.30;94.50;;;;;;5042247;28;20060;-78
2023/12/02 02:00:35;;;;;;;47.97;25.17;;;-3274.30;94.50;;;;;;5040896;28;20033;-78
2023/12/02 02:03:01;;;;;;;53.13;27.58;;;-3274.20;94.50;;;;;;5046057;28;20020;-80
2023/12/02 02:05:27;;;;;;;55.75;28.10;;;-3274.30;94.60;;;;;;5038355;28;20351;-78
2023/12/02 02:07:52;;;;;;;58.05;27.85;;;-3274.20;94.60;;;;;;5035399;28;20033;-78
2023/12/02 02:10:22;;;;;;;56.38;29.30;;;-3274.30;94.80;;;;;;5038413;28;20121;-78
2023/12/02 02:12:47;;;;;;;53.20;28.08;;;-3274.20;94.80;;;;;;5039674;28;20458;-78
2023/12/02 02:15:13;;;;;;;55.90;27.60;;;-3274.20;94.80;;;;;;5038557;28;20052;-79
2023/12/02 02:17:39;;;;;;;51.25;27.15;;;-3274.10;94.80;;;;;;5043437;28;20025;-78
2023/12/02 02:20:05;;;;;;;49.90;26.35;;;-3274.20;94.80;;;;;;5035804;28;20546;-80
2023/12/02 02:22:31;;;;;;;51.78;26.17;;;-3274.20;94.90;;;;;;5044549;28;20025;-78
2023/12/02 02:24:57;;;;;;;57.47;27.42;;;-3274.10;94.80;;;;;;5038345;28;20124;-78
2023/12/02 02:27:22;;;;;;;55.47;27.30;;;-3274.10;94.90;;;;;;5041075;28;20021;-78
2023/12/02 02:29:48;;;;;;;53.67;27.75;;;-3274.00;94.90;;;;;;5038006;28;20056;-78
2023/12/02 02:32:13;;;;;;;58.05;28.70;;;-3274.00;95.00;;;;;;5036726;28;20033;-78
2023/12/02 02:34:42;;;;;;;57.25;28.25;;;-3274.00;95.00;;;;;;5033271;28;20037;-79
2023/12/02 02:37:08;;;;;;;51.10;27.10;;;-3274.00;94.90;;;;;;5040357;28;20476;-79
2023/12/02 02:39:34;;;;;;;55.05;25.98;;;-3274.00;95.00;;;;;;5032829;28;20038;-79
2023/12/02 02:42:05;;;;;;;47.22;24.85;;;-3273.90;95.00;;;;;;5039977;28;20036;-78
2023/12/02 02:44:33;;;;;;;51.08;24.55;;;-3273.90;95.00;;;;;;5030442;28;20033;-78
2023/12/02 02:46:58;;;;;;;52.70;24.55;;;-3273.90;95.00;;;;;;5031199;28;20036;-79
2023/12/02 02:49:24;;;;;;;50.40;23.83;;;-3273.80;94.90;;;;;;5027465;28;20025;-79
2023/12/02 02:51:49;;;;;;;50.13;23.90;;;-3273.80;95.10;;;;;;5028465;28;20048;-78
2023/12/02 02:54:15;;;;;;;50.53;24.15;;;-3273.80;94.90;;;;;;5037875;28;20096;-79
2023/12/02 02:56:42;;;;;;;49.28;24.83;;;-3273.80;94.90;;;;;;5033778;28;20091;-80
2023/12/02 02:59:08;;;;;;;47.78;24.13;;;-3273.80;94.90;;;;;;5032423;28;20030;-79
2023/12/02 03:01:34;;;;;;;47.40;23.98;;;-3273.80;94.80;;;;;;5036886;28;20098;-78
2023/12/02 03:03:59;;;;;;;51.70;24.67;;;-3273.80;94.80;;;;;;5042038;28;20037;-78
2023/12/02 03:06:25;;;;;;;49.67;23.83;;;-3273.70;94.80;;;;;;5034266;28;20116;-80
2023/12/02 03:08:51;;;;;;;47.67;23.75;;;-3273.70;94.70;;;;;;5036122;28;20041;-78
2023/12/02 03:11:17;;;;;;;43.58;23.73;;;-3273.70;94.70;;;;;;5040962;28;20048;-78
2023/12/02 03:13:42;;;;;;;49.22;24.30;;;-3273.70;94.70;;;;;;5029264;28;20411;-79
2023/12/02 03:16:08;;;;;;;46.45;22.98;;;-3273.70;94.80;;;;;;5039463;28;20071;-78
2023/12/02 03:18:34;;;;;;;49.38;23.88;;;-3273.70;94.60;;;;;;5037508;28;20083;-78
2023/12/02 03:21:00;;;;;;;46.20;23.90;;;-3273.60;94.70;;;;;;5032618;28;20541;-80
2023/12/02 03:23:25;;;;;;;46.00;24.27;;;-3273.60;94.60;;;;;;5034334;28;20098;-78
2023/12/02 03:25:51;;;;;;;45.35;24.45;;;-3273.60;94.60;;;;;;5036694;28;20113;-78
2023/12/02 03:28:19;;;;;;;42.22;22.25;;;-3273.60;94.60;;;;;;5038472;28;20508;-78
2023/12/02 03:30:45;;;;;;;45.38;23.65;;;-3273.60;94.50;;;;;;5036144;28;20037;-78
2023/12/02 03:33:10;;;;;;;42.03;21.48;;;-3273.60;94.60;;;;;;5042817;28;20047;-79
2023/12/02 03:35:36;;;;;;;41.97;23.00;;;-3273.60;94.60;;;;;;5040222;28;20043;-79
2023/12/02 03:38:02;;;;;;;45.33;22.10;;;-3273.60;94.60;;;;;;5030063;28;20421;-79
2023/12/02 03:40:27;;;;;;;45.05;22.38;;;-3273.60;94.60;;;;;;5029867;28;20482;-78
2023/12/02 03:42:53;;;;;;;43.65;24.13;;;-3273.60;94.60;;;;;;5031801;28;20017;-78
2023/12/02 03:45:19;;;;;;;46.08;23.13;;;-3273.60;94.60;;;;;;5035140;28;20037;-79
2023/12/02 03:47:45;;;;;;;48.63;21.52;;;-3273.60;94.60;;;;;;5041325;28;20075;-78
2023/12/02 03:50:11;;;;;;;44.15;23.58;;;-3273.60;94.50;;;;;;5036612;28;20394;-79
2023/12/02 03:52:36;;;;;;;48.00;23.58;;;-3273.50;94.50;;;;;;5041151;28;20535;-80
2023/12/02 03:55:02;;;;;;;48.25;23.13;;;-3273.50;94.50;;;;;;5038323;28;20444;-79
2023/12/02 03:57:28;;;;;;;47.58;22.67;;;-3273.50;94.40;;;;;;5034504;28;20029;-79
2023/12/02 03:59:53;;;;;;;45.47;22.42;;;-3273.50;94.40;;;;;;5033576;28;20075;-79
2023/12/02 04:02:19;;;;;;;45.25;23.13;;;-3273.50;94.40;;;;;;5043485;28;20087;-79
2023/12/02 04:04:44;;;;;;;47.45;23.85;;;-3273.50;94.40;;;;;;5037120;28;20108;-79
2023/12/02 04:07:10;;;;;;;48.95;22.33;;;-3273.50;94.30;;;;;;5041983;28;20120;-79
2023/12/02 04:09:36;;;;;;;43.17;22.17;;;-3273.40;94.30;;;;;;5042069;28;20037;-79
2023/12/02 04:12:01;;;;;;;46.05;22.55;;;-3273.50;94.30;;;;;;5039824;28;20060;-80
2023/12/02 04:14:27;;;;;;;47.45;24.23;;;-3273.50;94.40;;;;;;5040678;28;20039;-79
2023/12/02 04:16:52;;;;;;;49.13;23.23;;;-3273.50;94.40;;;;;;5038898;28;20025;-80
2023/12/02 04:19:18;;;;;;;47.45;23.33;;;-3273.50;94.40;;;;;;5048912;28;20060;-81
2023/12/02 04:21:45;;;;;;;44.85;21.92;;;-3273.50;94.50;;;;;;5054366;28;20017;-79
2023/12/02 04:24:11;;;;;;;42.70;21.35;;;-3273.50;94.40;;;;;;5065340;28;20033;-80
2023/12/02 04:26:37;;;;;;;46.03;22.83;;;-3273.50;94.40;;;;;;5060053;28;20059;-79
2023/12/02 04:29:03;;;;;;;52.03;23.88;;;-3273.40;94.40;;;;;;5033402;28;20025;-78
2023/12/02 04:31:30;;;;;;;51.05;25.73;;;-3273.40;94.40;;;;;;5044577;28;20051;-81
2023/12/02 04:33:55;;;;;;;46.00;22.55;;;-3273.50;94.50;;;;;;5045220;28;20503;-79
2023/12/02 04:36:21;;;;;;;48.28;23.35;;;-3273.40;94.30;;;;;;5040000;28;20469;-80
2023/12/02 04:38:47;;;;;;;43.70;22.38;;;-3273.50;94.20;;;;;;5030772;28;22068;-80
2023/12/02 04:41:12;;;;;;;48.75;23.48;;;-3273.40;94.10;;;;;;5034623;28;20041;-80
2023/12/02 04:43:38;;;;;;;50.55;24.15;;;-3273.40;94.20;;;;;;5036183;28;20082;-80
2023/12/02 04:46:06;;;;;;;45.72;23.98;;;-3273.40;94.20;;;;;;5035641;28;20021;-80
2023/12/02 04:48:32;;;;;;;44.25;22.50;;;-3273.40;94.10;;;;;;5037968;28;20029;-79
2023/12/02 04:50:58;;;;;;;48.25;23.67;;;-3273.30;94.10;;;;;;5036571;28;20048;-79
2023/12/02 04:53:23;;;;;;;45.58;22.80;;;-3273.30;94.10;;;;;;5035443;28;20067;-79
2023/12/02 04:55:52;;;;;;;47.45;23.70;;;-3273.30;94.10;;;;;;5028950;28;20739;-79
2023/12/02 04:58:18;;;;;;;48.97;22.95;;;-3273.30;94.20;;;;;;5035194;28;20124;-78
2023/12/02 05:00:44;;;;;;;49.03;23.95;;;-3273.30;94.20;;;;;;5035218;28;20049;-78
2023/12/02 05:03:10;;;;;;;49.40;24.52;;;-3273.40;94.30;;;;;;5032820;28;20033;-77
2023/12/02 05:05:36;;;;;;;51.50;23.95;;;-3273.40;94.20;;;;;;5035393;28;20484;-78
2023/12/02 05:08:01;;;;;;;51.70;24.75;;;-3273.30;94.30;;;;;;5041461;28;20029;-78
2023/12/02 05:10:27;;;;;;;43.22;23.35;;;-3273.40;94.30;;;;;;5039112;28;20075;-79
2023/12/02 05:12:52;;;;;;;45.00;23.10;;;-3273.40;94.30;;;;;;5030937;28;20033;-78
2023/12/02 05:15:18;;;;;;;46.78;23.23;;;-3273.30;94.20;;;;;;5029795;28;20056;-80
2023/12/02 05:17:45;;;;;;;43.88;23.05;;;-3273.30;94.30;;;;;;5033896;28;20091;-78
2023/12/02 05:20:13;;;;;;;48.15;23.20;;;-3273.30;94.30;;;;;;5030029;28;20053;-79
2023/12/02 05:22:39;;;;;;;44.72;23.63;;;-3273.30;94.30;;;;;;5037942;28;20482;-79
2023/12/02 05:25:06;;;;;;;47.63;24.15;;;-3273.40;94.40;;;;;;5031769;28;20040;-79
2023/12/02 05:27:32;;;;;;;49.00;23.27;;;-3273.40;94.10;;;;;;5030780;28;20042;-81
2023/12/02 05:29:58;;;;;;;47.05;22.65;;;-3273.30;94.00;;;;;;5043067;28;20124;-79
2023/12/02 05:32:24;;;;;;;45.90;23.67;;;-3273.30;94.00;;;;;;5041662;28;20721;-79
2023/12/02 05:34:49;;;;;;;47.22;22.77;;;-3273.30;94.00;;;;;;5037990;28;20037;-78
2023/12/02 05:37:15;;;;;;;48.67;22.25;;;-3273.30;94.00;;;;;;5035952;28;20033;-80
2023/12/02 05:39:41;;;;;;;48.28;22.52;;;-3273.20;94.10;;;;;;5035105;28;20559;-79
2023/12/02 05:42:07;;;;;;;47.85;24.08;;;-3273.20;94.10;;;;;;5036944;28;20063;-79
2023/12/02 05:44:33;;;;;;;43.05;21.48;;;-3273.20;94.20;;;;;;5039374;28;20032;-80
2023/12/02 05:46:59;;;;;;;45.17;22.55;;;-3273.20;94.20;;;;;;5038087;28;20029;-81
2023/12/02 05:49:24;;;;;;;46.85;23.98;;;-3273.20;94.20;;;;;;5038782;28;20033;-79
2023/12/02 05:51:50;;;;;;;48.92;22.27;;;-3273.10;94.10;;;;;;5041673;28;20021;-79
2023/12/02 05:54:15;;;;;;;43.20;23.23;;;-3273.10;94.10;;;;;;5032072;28;20513;-79
2023/12/02 05:56:41;;;;;;;43.47;22.02;;;-3273.10;94.20;;;;;;5033985;28;20081;-80
2023/12/02 05:59:07;;;;;;;45.40;21.50;;;-3273.10;94.20;;;;;;5042210;28;20105;-79
2023/12/02 06:01:32;;;;;;;45.17;21.95;;;-3273.10;94.20;;;;;;5036270;28;20035;-80
2023/12/02 06:03:58;;;;;;;41.55;21.65;;;-3273.10;94.20;;;;;;5037603;28;20508;-79
2023/12/02 06:06:24;;;;;;;41.15;22.95;;;-3273.00;94.10;;;;;;5035281;28;20162;-81
2023/12/02 06:08:49;;;;;;;56.92;25.30;;;-3273.00;94.10;;;;;;5041221;28;20085;-79
2023/12/02 06:11:15;;;;;;;45.47;23.60;;;-3273.00;94.20;;;;;;5039983;28;20551;-78
2023/12/02 06:13:40;;;;;;;47.10;25.52;;;-3273.00;94.20;;;;;;5037903;28;20025;-78
2023/12/02 06:16:06;;;;;;;48.08;24.13;;;-3273.10;94.20;;;;;;5038274;28;20068;-78
2023/12/02 06:18:32;;;;;;;49.17;25.77;;;-3273.00;94.20;;;;;;5033141;28;20025;-79
2023/12/02 06:20:57;;;;;;;63.65;39.05;;;-3273.00;94.20;;;;;;5044784;28;20474;-79
2023/12/02 06:23:24;;;;;;;52.90;27.67;;;-3273.10;94.20;;;;;;5037372;28;20043;-79
2023/12/02 06:25:50;;;;;;;52.42;25.92;;;-3273.10;94.20;;;;;;5040371;28;20041;-78
2023/12/02 06:28:15;;;;;;;47.45;25.02;;;-3273.10;94.10;;;;;;5042820;28;20546;-81
2023/12/02 06:30:41;;;;;;;49.30;24.73;;;-3273.10;94.10;;;;;;5036641;28;20463;-79
2023/12/02 06:33:07;;;;;;;47.17;24.38;;;-3273.10;94.10;;;;;;5031762;28;20439;-79
2023/12/02 06:35:32;;;;;;;46.60;23.15;;;-3273.10;94.10;;;;;;5037516;28;20329;-80
2023/12/02 06:37:58;;;;;;;42.45;22.45;;;-3273.10;94.10;;;;;;5045920;28;20041;-79
2023/12/02 06:40:24;;;;;;;48.55;25.40;;;-3273.10;94.20;;;;;;5034106;28;20179;-80
2023/12/02 06:42:49;;;;;;;48.22;24.65;;;-3273.20;94.20;;;;;;5042648;28;20025;-79
2023/12/02 06:45:15;;;;;;;47.88;24.23;;;-3273.20;94.10;;;;;;5036414;28;20051;-80
2023/12/02 06:47:41;;;;;;;45.45;24.58;;;-3273.20;94.00;;;;;;5030971;28;20060;-79
2023/12/02 06:50:07;;;;;;;46.20;24.23;;;-3273.10;94.00;;;;;;5036808;28;20069;-79
2023/12/02 06:52:33;;;;;;;47.70;24.88;;;-3273.10;93.90;;;;;;5031521;28;20079;-80
2023/12/02 06:54:59;;;;;;;47.60;25.27;;;-3273.10;94.00;;;;;;5036051;28;20036;-80
2023/12/02 06:57:25;;;;;;;51.10;25.48;;;-3273.00;94.00;;;;;;5040894;28;20327;-79
2023/12/02 06:59:51;;;;;;;47.35;26.33;;;-3273.10;94.00;;;;;;5044655;28;20075;-80
2023/12/02 07:02:17;;;;;;;49.75;25.77;;;-3273.10;94.00;;;;;;5040302;28;20039;-79
2023/12/02 07:04:45;;;;;;;51.08;26.95;;;-3273.10;94.00;;;;;;5045516;28;20063;-80
2023/12/02 07:07:11;;;;;;;48.58;27.02;;;-3273.10;94.00;;;;;;5038288;28;20119;-80
2023/12/02 07:09:37;;;;;;;47.00;24.98;;;-3273.10;94.00;;;;;;5038420;28;20430;-80
2023/12/02 07:12:03;;;;;;;48.60;25.58;;;-3273.10;94.00;;;;;;5042664;28;20052;-79
2023/12/02 07:14:29;;;;;;;51.53;26.90;;;-3273.00;94.00;;;;;;5044415;28;20021;-79
2023/12/02 07:16:54;;;;;;;52.80;25.88;;;-3273.10;94.10;;;;;;5045978;28;20028;-79
2023/12/02 07:19:20;;;;;;;47.60;24.63;;;-3273.10;94.00;;;;;;5040150;28;20036;-79
2023/12/02 07:21:46;;;;;;;58.80;29.25;;;-3273.00;94.00;;;;;;5036262;28;20041;-80
2023/12/02 07:24:11;;;;;;;60.20;32.08;;;-3273.10;94.00;;;;;;5044339;28;20112;-82
2023/12/02 07:26:37;;;;;;;65.10;36.78;;;-3273.10;94.00;;;;;;5045232;28;20734;-77
2023/12/02 07:29:03;;;;;;;67.57;39.38;;;-3273.00;94.00;;;;;;5045993;28;20420;-75
2023/12/02 07:31:29;;;;;;;65.68;36.78;;;-3273.10;94.00;;;;;;5048605;28;20513;-77
2023/12/02 07:33:54;;;;;;;61.20;35.53;;;-3273.10;94.00;;;;;;5034412;28;20039;-77
2023/12/02 07:36:20;;;;;;;66.47;36.03;;;-3273.10;94.00;;;;;;5034433;28;20019;-77
2023/12/02 07:38:47;;;;;;;66.35;36.40;;;-3273.20;94.00;;;;;;5043255;28;20083;-79
2023/12/02 07:41:13;;;;;;;63.70;36.47;;;-3273.10;94.00;;;;;;5035108;28;20355;-77
2023/12/02 07:43:39;;;;;;;57.95;34.33;;;-3273.30;94.10;;;;;;5041790;28;20040;-75
2023/12/02 07:46:05;;;;;;;55.17;33.35;;;-3273.30;94.10;;;;;;5046126;28;20116;-77
2023/12/02 07:48:30;;;;;;;57.35;32.45;;;-3273.30;94.00;;;;;;5045819;28;20079;-77
2023/12/02 07:50:56;;;;;;;58.55;30.77;;;-3273.30;94.00;;;;;;5035260;28;20468;-77
2023/12/02 07:53:22;;;;;;;61.50;29.83;;;-3273.30;93.90;;;;;;5040332;28;20552;-78
2023/12/02 07:55:47;;;;;;;58.75;29.83;;;-3273.40;93.90;;;;;;5040566;28;20382;-76
2023/12/02 07:58:13;;;;;;;55.42;31.75;;;-3273.40;93.90;;;;;;5043296;28;20090;-79
2023/12/02 08:00:39;;;;;;;58.22;30.25;;;-3273.40;93.80;;;;;;5040813;28;20108;-77
2023/12/02 08:03:04;;;;;;;55.33;28.65;;;-3273.50;93.70;;;;;;5038686;28;20478;-76
2023/12/02 08:05:30;;;;;;;58.53;30.05;;;-3273.50;93.70;;;;;;5038671;28;20484;-72
2023/12/02 08:07:56;;;;;;;56.78;29.80;;;-3273.60;93.70;;;;;;5042465;28;20128;-72
2023/12/02 08:10:22;;;;;;;57.47;28.85;;;-3273.60;93.70;;;;;;5032504;28;20513;-74
2023/12/02 08:12:48;;;;;;;55.15;29.17;;;-3273.70;93.80;;;;;;5046283;28;20120;-71
2023/12/02 08:15:14;;;;;;;58.65;29.92;;;-3273.80;93.80;;;;;;5034699;28;20083;-72
2023/12/02 08:17:40;;;;;;;60.63;32.22;;;-3273.80;93.80;;;;;;5039340;28;20409;-73
2023/12/02 08:20:08;;;;;;;59.60;31.40;;;-3273.90;93.80;;;;;;5036769;28;20228;-73
2023/12/02 08:22:34;;;;;;;61.38;32.75;;;-3273.90;93.70;;;;;;5033155;28;20115;-72
2023/12/02 08:25:00;;;;;;;57.13;29.58;;;-3274.00;93.70;;;;;;5035845;28;20083;-73
2023/12/02 08:27:26;;;;;;;61.65;29.55;;;-3274.00;93.70;;;;;;5030564;28;20029;-72
2023/12/02 08:29:52;;;;;;;59.58;30.30;;;-3274.20;93.80;;;;;;5028696;28;20069;-72
2023/12/02 08:32:18;;;;;;;58.45;29.58;;;-3274.20;93.80;;;;;;5037571;28;20033;-71
2023/12/02 08:34:44;;;;;;;58.50;29.83;;;-3274.40;93.70;;;;;;5040097;28;20367;-72
2023/12/02 08:37:09;;;;;;;59.47;29.73;;;-3274.40;93.70;;;;;;5040606;28;20024;-72
2023/12/02 08:39:37;;;;;;;58.08;30.50;;;-3274.50;93.70;;;;;;5039125;28;20041;-74
2023/12/02 08:42:03;;;;;;;62.70;32.05;;;-3274.60;93.60;;;;;;5026040;28;20074;-72
2023/12/02 08:44:28;;;;;;;61.17;31.38;;;-3274.60;93.60;;;;;;5042820;28;20055;-73
2023/12/02 08:46:54;;;;;;;68.25;35.13;;;-3274.80;93.70;;;;;;5024907;28;20121;-71
2023/12/02 08:49:20;;;;;;;66.78;34.70;;;-3274.90;93.70;;;;;;5038552;28;20025;-70
2023/12/02 08:51:46;;;;;;;72.40;35.65;;;-3275.00;93.80;;;;;;5042152;28;20029;-71
2023/12/02 08:54:13;;;;;;;71.35;35.70;;;-3275.20;94.00;;;;;;5040352;28;20017;-71
2023/12/02 08:56:38;;;;;;;64.30;32.63;;;-3275.30;93.80;;;;;;5035408;28;20051;-72
2023/12/02 08:59:04;;;;;;;58.30;31.35;;;-3275.50;93.40;;;;;;5037743;28;20549;-72
2023/12/02 09:01:30;;;;;;;63.30;33.13;;;-3275.50;93.10;;;;;;5027265;28;20030;-73
2023/12/02 09:03:56;;;;;;;62.30;33.13;;;-3275.70;93.00;;;;;;5040991;28;20194;-74
2023/12/02 09:06:22;;;;;;;58.47;32.78;;;-3275.70;92.70;;;;;;5036719;28;20087;-71
2023/12/02 09:08:48;;;;;;;58.67;34.25;;;-3276.00;93.00;;;;;;5035016;28;20041;-71
2023/12/02 09:11:14;;;;;;;64.70;32.67;;;-3276.10;92.70;;;;;;5039150;28;20547;-71
2023/12/02 09:13:39;;;;;;;70.55;37.92;;;-3276.20;92.10;;;;;;5035097;28;20100;-72
2023/12/02 09:16:15;;;;;;;82.25;45.05;;;-3276.20;91.90;;;;;;5035848;28;20120;-73
2023/12/02 09:18:41;;;;;;;83.57;48.20;;;-3276.30;91.80;;;;;;5032306;28;20115;-74
2023/12/02 09:21:30;;;;;;;129.32;97.47;;;-3276.30;91.80;;;;;;5033487;28;20531;-74
2023/12/02 09:24:02;;;;;;;63.70;39.05;;;-3276.40;91.90;;;;;;5038267;28;20065;-74
2023/12/02 09:26:33;;;;;;;59.85;32.60;;;-3276.50;91.70;;;;;;5033989;28;20028;-72
2023/12/02 09:28:59;;;;;;;63.15;34.38;;;-3276.40;91.40;;;;;;5036119;28;20033;-73
2023/12/02 09:31:26;;;;;;;60.65;33.25;;;-3276.60;91.80;;;;;;5033288;28;20426;-73
2023/12/02 09:34:04;;;;;;;59.03;33.03;;;0.00;91.80;;;;;;5036882;28;20028;-72
2023/12/02 09:36:41;;;;;;;60.13;33.85;;;0.10;91.60;;;;;;5032266;28;20083;-73
2023/12/02 09:39:09;;;;;;;62.42;32.75;;;0.20;91.40;;;;;;5039786;28;20048;-76
2023/12/02 09:41:51;;;;;;;61.25;31.67;;;0.40;90.50;;;;;;5027228;28;20030;-73
2023/12/02 09:44:38;;;;;;;55.10;31.20;;;0.40;90.20;;;;;;5033237;28;20025;-76
2023/12/02 09:47:17;;;;;;;56.22;30.27;;;0.40;90.00;;;;;;5038388;28;20549;-75
2023/12/02 09:50:10;;;;;;;60.33;32.50;;;0.30;89.80;;;;;;5038408;28;20396;-76
2023/12/02 09:52:48;;;;;;;59.60;30.73;;;0.30;89.70;;;;;;5044285;28;20025;-72
2023/12/02 09:55:59;;;;;;;61.58;34.15;;;0.40;90.20;;;;;;5034334;28;20473;-75
2023/12/02 09:58:32;;;;;;;81.40;47.28;;;0.40;90.30;;;;;;5025698;28;20063;-73
2023/12/02 10:01:21;;;;;;;57.90;33.72;;;0.40;90.10;;;;;;5056370;28;20087;-77
2023/12/02 10:04:12;;;;;;;58.22;33.10;;;0.40;90.10;;;;;;5043854;28;20124;-77
2023/12/02 10:07:03;;;;;;;57.38;32.63;;;0.40;90.30;;;;;;5042614;28;20082;-74
2023/12/02 10:10:03;;;;;;;60.55;34.08;;;0.40;90.20;;;;;;5039913;28;20051;-77
2023/12/02 10:12:46;;;;;;;65.30;37.60;;;0.30;90.10;;;;;;5034405;28;20021;-73
2023/12/02 10:15:12;;;;;;;62.00;34.55;;;0.20;90.40;;;;;;5023854;28;20507;-74
2023/12/02 10:17:55;;;;;;;64.28;33.67;;;0.20;90.60;;;;;;5034804;28;20083;-75
2023/12/02 10:20:27;;;;;;;56.72;32.67;;;0.20;90.50;;;;;;5034732;28;20025;-72
2023/12/02 10:22:58;;;;;;;62.45;37.70;;;0.20;90.70;;;;;;5039193;28;20021;-74
2023/12/02 10:25:42;;;;;;;79.68;49.38;;;0.20;90.90;;;;;;5040760;28;20381;-74
2023/12/02 10:28:28;;;;;;;70.97;44.38;;;0.30;91.00;;;;;;5035960;28;20049;-74
2023/12/02 10:30:59;;;;;;;62.13;35.95;;;0.30;91.10;;;;;;5038606;28;20061;-74
2023/12/02 10:33:27;;;;;;;64.07;34.72;;;0.40;91.00;;;;;;5043298;28;20028;-74
2023/12/02 10:36:00;;;;;;;56.13;32.50;;;0.30;90.80;;;;;;5028225;28;20124;-73
2023/12/02 10:38:39;;;;;;;60.75;34.35;;;0.40;90.80;;;;;;5044327;28;20441;-73
2023/12/02 10:41:19;;;;;;;63.33;35.88;;;0.30;90.70;;;;;;5037272;28;20095;-73
2023/12/02 10:43:46;;;;;;;63.67;35.90;;;0.30;90.90;;;;;;5038500;28;20332;-75
2023/12/02 10:46:12;;;;;;;73.95;39.28;;;0.40;91.40;;;;;;5034339;28;20053;-74
2023/12/02 10:48:42;;;;;;;67.75;37.92;;;0.60;91.70;;;;;;5038329;28;20142;-72
2023/12/02 10:51:09;;;;;;;63.00;36.03;;;0.90;91.60;;;;;;5035974;28;20452;-75
2023/12/02 10:53:36;;;;;;;65.15;38.33;;;1.00;91.00;;;;;;5039273;28;20625;-75
2023/12/02 10:56:10;;;;;;;64.70;38.75;;;1.20;91.10;;;;;;5038942;28;20033;-75
2023/12/02 10:58:39;;;;;;;63.28;36.47;;;1.40;91.00;;;;;;5033119;28;20253;-75
2023/12/02 11:01:07;;;;;;;65.13;35.95;;;1.60;90.30;;;;;;5039213;28;20583;-74
2023/12/02 11:03:59;;;;;;;66.20;37.13;;;1.60;89.30;;;;;;5035233;28;20508;-74
2023/12/02 11:06:32;;;;;;;60.80;35.47;;;1.40;89.00;;;;;;5040050;28;20473;-75
2023/12/02 11:09:14;;;;;;;61.13;34.42;;;1.30;89.10;;;;;;5031100;28;20060;-75
2023/12/02 11:11:56;;;;;;;60.17;34.45;;;1.20;89.40;;;;;;5035345;28;20065;-76
2023/12/02 11:14:24;;;;;;;61.90;35.42;;;1.10;89.70;;;;;;5040008;28;20021;-74
2023/12/02 11:17:06;;;;;;;62.08;34.63;;;1.20;89.90;;;;;;5031249;28;20038;-73
2023/12/02 11:19:42;;;;;;;69.07;36.28;;;1.10;89.60;;;;;;5029365;28;20482;-74
2023/12/02 11:22:14;;;;;;;62.25;34.92;;;1.20;89.90;;;;;;5033206;28;20449;-75
2023/12/02 11:25:03;;;;;;;62.80;35.67;;;1.40;90.20;;;;;;5034895;28;20497;-73
2023/12/02 11:27:46;;;;;;;63.97;37.00;;;1.50;89.70;;;;;;5033879;28;20043;-72
2023/12/02 11:30:33;;;;;;;66.13;35.67;;;1.40;89.10;;;;;;5032738;28;20144;-73
2023/12/02 11:33:17;;;;;;;65.72;41.03;;;1.40;89.30;;;;;;5029421;28;20599;-73
2023/12/02 11:35:58;;;;;;;68.95;40.25;;;1.20;89.50;;;;;;5038278;28;20110;-74
2023/12/02 11:38:30;;;;;;;61.58;36.22;;;1.20;90.00;;;;;;5037915;28;20113;-75
2023/12/02 11:41:07;;;;;;;62.10;36.47;;;1.30;90.00;;;;;;5035727;28;20490;-74
2023/12/02 11:43:33;;;;;;;61.72;36.30;;;1.50;90.20;;;;;;5033004;28;20060;-73
2023/12/02 11:46:04;;;;;;;59.53;35.45;;;1.70;90.10;;;;;;5035791;28;20136;-76
2023/12/02 11:48:32;;;;;;;61.92;36.15;;;1.80;89.70;;;;;;5032495;28;20075;-75
2023/12/02 11:51:15;;;;;;;58.03;33.92;;;1.90;89.70;;;;;;5034621;28;20323;-75
2023/12/02 11:53:50;;;;;;;61.72;35.13;;;2.00;89.40;;;;;;5036544;28;20505;-75
2023/12/02 11:56:18;;;;;;;58.80;34.95;;;2.20;89.10;;;;;;5032628;28;20098;-73
2023/12/02 11:58:51;;;;;;;56.67;33.42;;;2.30;88.80;;;;;;5032462;28;20040;-74
2023/12/02 12:01:34;;;;;;;58.50;34.58;;;2.30;88.50;;;;;;5030221;28;20045;-76
2023/12/02 12:04:22;;;;;;;57.58;33.58;;;2.40;88.00;;;;;;5033328;28;20041;-75
2023/12/02 12:07:13;;;;;;;58.50;34.97;;;2.40;87.60;;;;;;5031457;28;20041;-74
2023/12/02 12:10:07;;;;;;;61.50;34.40;;;2.40;87.80;;;;;;5032383;28;20551;-75
2023/12/02 12:12:39;;;;;;;60.70;32.92;;;2.40;87.40;;;;;;5033787;28;20017;-74